sensor_id;sensor_type;location;lat;lon;timestamp;temperature;humidity
66119;DHT22;52912;48.564;9.302;2023-08-30T00:01:13;13.26;99.99
66119;DHT22;52912;48.564;9.302;2023-08-30T00:03:39;13.24;99.99
66119;DHT22;52912;48.564;9.302;2023-08-30T00:06:04;13.23;99.99
66119;DHT22;52912;48.564;9.302;2023-08-30T00:08:32;13.23;99.99
66119;DHT22;52912;48.564;9.302;2023-08-30T00:10:57;13.26;99.99
66119;DHT22;52912;48.564;9.302;2023-08-30T00:13:22;13.27;99.99
66119;DHT22;52912;48.564;9.302;2023-08-30T00:15:48;13.27;99.99
66119;DHT22;52912;48.564;9.302;2023-08-30T00:18:13;13.24;99.99
66119;DHT22;52912;48.564;9.302;2023-08-30T00:20:39;13.23;99.99
66119;DHT22;52912;48.564;9.302;2023-08-30T00:23:04;13.26;99.99
66119;DHT22;52912;48.564;9.302;2023-08-30T00:25:31;13.26;99.99
66119;DHT22;52912;48.564;9.302;2023-08-30T00:27:57;13.19;99.99
66119;DHT22;52912;48.564;9.302;2023-08-30T00:30:22;13.22;99.99
66119;DHT22;52912;48.564;9.302;2023-08-30T00:32:47;13.15;99.99
66119;DHT22;52912;48.564;9.302;2023-08-30T00:35:13;13.15;99.99
66119;DHT22;52912;48.564;9.302;2023-08-30T00:37:38;13.15;99.99
66119;DHT22;52912;48.564;9.302;2023-08-30T00:40:05;13.16;99.99
66119;DHT22;52912;48.564;9.302;2023-08-30T00:42:32;13.23;99.99
66119;DHT22;52912;48.564;9.302;2023-08-30T00:44:58;13.20;99.99
66119;DHT22;52912;48.564;9.302;2023-08-30T00:47:26;13.23;99.99
66119;DHT22;52912;48.564;9.302;2023-08-30T00:49:52;13.20;99.99
66119;DHT22;52912;48.564;9.302;2023-08-30T00:52:17;13.15;99.99
66119;DHT22;52912;48.564;9.302;2023-08-30T00:54:43;13.09;99.99
66119;DHT22;52912;48.564;9.302;2023-08-30T00:57:09;13.15;99.99
66119;DHT22;52912;48.564;9.302;2023-08-30T00:59:37;13.22;99.99
66119;DHT22;52912;48.564;9.302;2023-08-30T01:02:04;13.19;99.99
66119;DHT22;52912;48.564;9.302;2023-08-30T01:04:29;13.15;99.99
66119;DHT22;52912;48.564;9.302;2023-08-30T01:06:55;13.06;99.99
66119;DHT22;52912;48.564;9.302;2023-08-30T01:09:21;13.06;99.99
66119;DHT22;52912;48.564;9.302;2023-08-30T01:11:52;12.96;99.99
66119;DHT22;52912;48.564;9.302;2023-08-30T01:14:21;12.96;99.99
66119;DHT22;52912;48.564;9.302;2023-08-30T01:16:49;12.95;99.99
66119;DHT22;52912;48.564;9.302;2023-08-30T01:19:26;12.96;99.99
66119;DHT22;52912;48.564;9.302;2023-08-30T01:22:01;12.96;99.99
66119;DHT22;52912;48.564;9.302;2023-08-30T01:24:32;12.96;99.99
66119;DHT22;52912;48.564;9.302;2023-08-30T01:27:09;12.87;99.99
66119;DHT22;52912;48.564;9.302;2023-08-30T01:29:36;12.83;99.99
66119;DHT22;52912;48.564;9.302;2023-08-30T01:32:02;12.84;99.99
66119;DHT22;52912;48.564;9.302;2023-08-30T01:34:28;12.81;99.99
66119;DHT22;52912;48.564;9.302;2023-08-30T01:36:54;12.85;99.99
66119;DHT22;52912;48.564;9.302;2023-08-30T01:39:21;12.85;99.99
66119;DHT22;52912;48.564;9.302;2023-08-30T01:41:47;12.83;99.99
66119;DHT22;52912;48.564;9.302;2023-08-30T01:44:14;12.88;99.99
66119;DHT22;52912;48.564;9.302;2023-08-30T01:46:40;12.83;99.99
66119;DHT22;52912;48.564;9.302;2023-08-30T01:49:06;12.84;99.99
66119;DHT22;52912;48.564;9.302;2023-08-30T01:51:32;12.88;99.99
66119;DHT22;52912;48.564;9.302;2023-08-30T01:53:58;12.85;99.99
66119;DHT22;52912;48.564;9.302;2023-08-30T01:56:23;12.80;99.99
66119;DHT22;52912;48.564;9.302;2023-08-30T01:58:49;12.87;99.99
66119;DHT22;52912;48.564;9.302;2023-08-30T02:01:16;12.85;99.99
66119;DHT22;52912;48.564;9.302;2023-08-30T02:03:43;12.81;99.99
66119;DHT22;52912;48.564;9.302;2023-08-30T02:06:13;12.69;99.99
66119;DHT22;52912;48.564;9.302;2023-08-30T02:08:41;12.71;99.99
66119;DHT22;52912;48.564;9.302;2023-08-30T02:11:15;12.75;99.99
66119;DHT22;52912;48.564;9.302;2023-08-30T02:13:43;12.77;99.99
66119;DHT22;52912;48.564;9.302;2023-08-30T02:16:10;12.81;99.99
66119;DHT22;52912;48.564;9.302;2023-08-30T02:18:39;12.78;99.99
66119;DHT22;52912;48.564;9.302;2023-08-30T02:21:05;12.78;99.99
66119;DHT22;52912;48.564;9.302;2023-08-30T02:23:31;12.80;99.99
66119;DHT22;52912;48.564;9.302;2023-08-30T02:25:56;12.80;99.99
66119;DHT22;52912;48.564;9.302;2023-08-30T02:28:22;12.81;99.99
66119;DHT22;52912;48.564;9.302;2023-08-30T02:30:47;12.84;99.99
66119;DHT22;52912;48.564;9.302;2023-08-30T02:33:12;12.80;99.99
66119;DHT22;52912;48.564;9.302;2023-08-30T02:35:39;12.67;99.99
66119;DHT22;52912;48.564;9.302;2023-08-30T02:38:05;12.65;99.99
66119;DHT22;52912;48.564;9.302;2023-08-30T02:40:30;12.71;99.99
66119;DHT22;52912;48.564;9.302;2023-08-30T02:42:56;12.64;99.99
66119;DHT22;52912;48.564;9.302;2023-08-30T02:45:21;12.64;99.99
66119;DHT22;52912;48.564;9.302;2023-08-30T02:47:48;12.69;99.99
66119;DHT22;52912;48.564;9.302;2023-08-30T02:50:13;12.69;99.99
66119;DHT22;52912;48.564;9.302;2023-08-30T02:52:40;12.67;99.99
66119;DHT22;52912;48.564;9.302;2023-08-30T02:55:06;12.64;99.99
66119;DHT22;52912;48.564;9.302;2023-08-30T02:57:31;12.63;99.99
66119;DHT22;52912;48.564;9.302;2023-08-30T02:59:57;12.60;99.99
66119;DHT22;52912;48.564;9.302;2023-08-30T03:02:22;12.65;99.99
66119;DHT22;52912;48.564;9.302;2023-08-30T03:04:48;12.73;99.99
66119;DHT22;52912;48.564;9.302;2023-08-30T03:07:13;12.77;99.99
66119;DHT22;52912;48.564;9.302;2023-08-30T03:09:40;12.77;99.99
66119;DHT22;52912;48.564;9.302;2023-08-30T03:12:06;12.80;99.99
66119;DHT22;52912;48.564;9.302;2023-08-30T03:14:32;12.77;99.99
66119;DHT22;52912;48.564;9.302;2023-08-30T03:16:57;12.81;99.99
66119;DHT22;52912;48.564;9.302;2023-08-30T03:19:23;12.78;99.99
66119;DHT22;52912;48.564;9.302;2023-08-30T03:21:48;12.81;99.99
66119;DHT22;52912;48.564;9.302;2023-08-30T03:24:14;12.71;99.99
66119;DHT22;52912;48.564;9.302;2023-08-30T03:26:42;12.78;99.99
66119;DHT22;52912;48.564;9.302;2023-08-30T03:29:07;12.68;99.99
66119;DHT22;52912;48.564;9.302;2023-08-30T03:31:33;12.61;99.99
66119;DHT22;52912;48.564;9.302;2023-08-30T03:33:58;12.50;99.99
66119;DHT22;52912;48.564;9.302;2023-08-30T03:36:24;12.49;99.99
66119;DHT22;52912;48.564;9.302;2023-08-30T03:38:49;12.49;99.99
66119;DHT22;52912;48.564;9.302;2023-08-30T03:41:15;12.49;99.99
66119;DHT22;52912;48.564;9.302;2023-08-30T03:43:41;12.50;99.99
66119;DHT22;52912;48.564;9.302;2023-08-30T03:46:07;12.50;99.99
66119;DHT22;52912;48.564;9.302;2023-08-30T03:48:32;12.47;99.99
66119;DHT22;52912;48.564;9.302;2023-08-30T03:50:58;12.53;99.99
66119;DHT22;52912;48.564;9.302;2023-08-30T03:53:24;12.63;99.99
66119;DHT22;52912;48.564;9.302;2023-08-30T03:55:50;12.65;99.99
66119;DHT22;52912;48.564;9.302;2023-08-30T03:58:16;12.68;99.99
66119;DHT22;52912;48.564;9.302;2023-08-30T04:00:43;12.69;99.99
66119;DHT22;52912;48.564;9.302;2023-08-30T04:03:09;12.68;99.99
66119;DHT22;52912;48.564;9.302;2023-08-30T04:05:35;12.67;99.99
66119;DHT22;52912;48.564;9.302;2023-08-30T04:08:01;12.67;99.99
66119;DHT22;52912;48.564;9.302;2023-08-30T04:10:27;12.63;99.99
66119;DHT22;52912;48.564;9.302;2023-08-30T04:12:52;12.67;99.99
66119;DHT22;52912;48.564;9.302;2023-08-30T04:15:17;12.65;99.99
66119;DHT22;52912;48.564;9.302;2023-08-30T04:17:44;12.68;99.99
66119;DHT22;52912;48.564;9.302;2023-08-30T04:20:10;12.69;99.99
66119;DHT22;52912;48.564;9.302;2023-08-30T04:22:36;12.77;99.99
66119;DHT22;52912;48.564;9.302;2023-08-30T04:25:01;12.78;99.99
66119;DHT22;52912;48.564;9.302;2023-08-30T04:27:27;12.75;99.99
66119;DHT22;52912;48.564;9.302;2023-08-30T04:29:53;12.80;99.99
66119;DHT22;52912;48.564;9.302;2023-08-30T04:32:18;12.77;99.99
66119;DHT22;52912;48.564;9.302;2023-08-30T04:34:45;12.71;99.99
66119;DHT22;52912;48.564;9.302;2023-08-30T04:37:10;12.65;99.99
66119;DHT22;52912;48.564;9.302;2023-08-30T04:39:36;12.65;99.99
66119;DHT22;52912;48.564;9.302;2023-08-30T04:42:01;12.61;99.99
66119;DHT22;52912;48.564;9.302;2023-08-30T04:44:27;12.63;99.99
66119;DHT22;52912;48.564;9.302;2023-08-30T04:46:53;12.60;99.99
66119;DHT22;52912;48.564;9.302;2023-08-30T04:49:18;12.54;99.99
66119;DHT22;52912;48.564;9.302;2023-08-30T04:51:45;12.47;99.99
66119;DHT22;52912;48.564;9.302;2023-08-30T04:54:11;12.43;99.99
66119;DHT22;52912;48.564;9.302;2023-08-30T04:56:36;12.43;99.99
66119;DHT22;52912;48.564;9.302;2023-08-30T04:59:02;12.50;99.99
66119;DHT22;52912;48.564;9.302;2023-08-30T05:01:27;12.41;99.99
66119;DHT22;52912;48.564;9.302;2023-08-30T05:03:52;12.44;99.99
66119;DHT22;52912;48.564;9.302;2023-08-30T05:06:18;12.44;99.99
66119;DHT22;52912;48.564;9.302;2023-08-30T05:08:46;12.43;99.99
66119;DHT22;52912;48.564;9.302;2023-08-30T05:11:12;12.49;99.99
66119;DHT22;52912;48.564;9.302;2023-08-30T05:13:37;12.49;99.99
66119;DHT22;52912;48.564;9.302;2023-08-30T05:16:03;12.47;99.99
66119;DHT22;52912;48.564;9.302;2023-08-30T05:18:28;12.51;99.99
66119;DHT22;52912;48.564;9.302;2023-08-30T05:20:57;12.53;99.99
66119;DHT22;52912;48.564;9.302;2023-08-30T05:23:22;12.54;99.99
66119;DHT22;52912;48.564;9.302;2023-08-30T05:25:49;12.50;99.99
66119;DHT22;52912;48.564;9.302;2023-08-30T05:28:15;12.53;99.99
66119;DHT22;52912;48.564;9.302;2023-08-30T05:30:42;12.54;99.99
66119;DHT22;52912;48.564;9.302;2023-08-30T05:33:08;12.64;99.99
66119;DHT22;52912;48.564;9.302;2023-08-30T05:35:33;12.71;99.99
66119;DHT22;52912;48.564;9.302;2023-08-30T05:37:58;12.75;99.99
66119;DHT22;52912;48.564;9.302;2023-08-30T05:40:24;12.78;99.99
66119;DHT22;52912;48.564;9.302;2023-08-30T05:42:51;12.88;99.99
66119;DHT22;52912;48.564;9.302;2023-08-30T05:45:16;12.89;99.99
66119;DHT22;52912;48.564;9.302;2023-08-30T05:47:42;12.89;99.99
66119;DHT22;52912;48.564;9.302;2023-08-30T05:50:08;12.84;99.99
66119;DHT22;52912;48.564;9.302;2023-08-30T05:52:33;12.87;99.99
66119;DHT22;52912;48.564;9.302;2023-08-30T05:54:59;12.84;99.99
66119;DHT22;52912;48.564;9.302;2023-08-30T05:57:24;12.88;99.99
66119;DHT22;52912;48.564;9.302;2023-08-30T05:59:51;12.83;99.99
66119;DHT22;52912;48.564;9.302;2023-08-30T06:02:17;12.87;99.99
66119;DHT22;52912;48.564;9.302;2023-08-30T06:04:42;12.99;99.99
66119;DHT22;52912;48.564;9.302;2023-08-30T06:07:08;13.09;99.99
66119;DHT22;52912;48.564;9.302;2023-08-30T06:09:33;12.94;99.99
66119;DHT22;52912;48.564;9.302;2023-08-30T06:11:59;13.02;99.99
66119;DHT22;52912;48.564;9.302;2023-08-30T06:14:24;13.02;99.99
66119;DHT22;52912;48.564;9.302;2023-08-30T06:16:51;13.13;99.99
66119;DHT22;52912;48.564;9.302;2023-08-30T06:19:16;13.09;99.99
66119;DHT22;52912;48.564;9.302;2023-08-30T06:21:42;13.09;99.99
66119;DHT22;52912;48.564;9.302;2023-08-30T06:24:07;13.20;99.99
66119;DHT22;52912;48.564;9.302;2023-08-30T06:26:33;13.24;99.99
66119;DHT22;52912;48.564;9.302;2023-08-30T06:28:58;13.24;99.99
66119;DHT22;52912;48.564;9.302;2023-08-30T06:31:24;13.36;99.99
66119;DHT22;52912;48.564;9.302;2023-08-30T06:33:53;13.43;99.99
66119;DHT22;52912;48.564;9.302;2023-08-30T06:36:19;13.48;99.99
66119;DHT22;52912;48.564;9.302;2023-08-30T06:38:44;13.37;99.99
66119;DHT22;52912;48.564;9.302;2023-08-30T06:41:09;13.43;99.99
66119;DHT22;52912;48.564;9.302;2023-08-30T06:43:37;13.54;99.99
66119;DHT22;52912;48.564;9.302;2023-08-30T06:46:02;13.61;99.99
66119;DHT22;52912;48.564;9.302;2023-08-30T06:48:28;13.65;99.99
66119;DHT22;52912;48.564;9.302;2023-08-30T06:50:57;13.60;99.99
66119;DHT22;52912;48.564;9.302;2023-08-30T06:53:22;13.61;99.93
66119;DHT22;52912;48.564;9.302;2023-08-30T06:55:56;13.70;99.99
66119;DHT22;52912;48.564;9.302;2023-08-30T06:58:22;13.79;99.62
66119;DHT22;52912;48.564;9.302;2023-08-30T07:00:47;13.82;99.82
66119;DHT22;52912;48.564;9.302;2023-08-30T07:03:12;13.86;99.70
66119;DHT22;52912;48.564;9.302;2023-08-30T07:05:38;13.82;99.63
66119;DHT22;52912;48.564;9.302;2023-08-30T07:08:05;13.98;99.41
66119;DHT22;52912;48.564;9.302;2023-08-30T07:10:30;13.98;99.41
66119;DHT22;52912;48.564;9.302;2023-08-30T07:12:56;14.06;99.20
66119;DHT22;52912;48.564;9.302;2023-08-30T07:15:21;14.22;99.23
66119;DHT22;52912;48.564;9.302;2023-08-30T07:17:47;14.27;98.93
66119;DHT22;52912;48.564;9.302;2023-08-30T07:20:12;14.43;98.20
66119;DHT22;52912;48.564;9.302;2023-08-30T07:22:39;14.48;98.38
66119;DHT22;52912;48.564;9.302;2023-08-30T07:25:07;14.71;98.97
66119;DHT22;52912;48.564;9.302;2023-08-30T07:27:32;14.64;98.06
66119;DHT22;52912;48.564;9.302;2023-08-30T07:29:58;14.88;97.26
66119;DHT22;52912;48.564;9.302;2023-08-30T07:32:23;14.98;96.75
66119;DHT22;52912;48.564;9.302;2023-08-30T07:34:49;15.13;96.47
66119;DHT22;52912;48.564;9.302;2023-08-30T07:37:18;15.22;96.44
66119;DHT22;52912;48.564;9.302;2023-08-30T07:39:44;15.36;96.47
66119;DHT22;52912;48.564;9.302;2023-08-30T07:42:14;15.34;95.76
66119;DHT22;52912;48.564;9.302;2023-08-30T07:44:39;15.54;95.84
66119;DHT22;52912;48.564;9.302;2023-08-30T07:47:05;15.61;95.16
66119;DHT22;52912;48.564;9.302;2023-08-30T07:49:30;15.78;94.18
66119;DHT22;52912;48.564;9.302;2023-08-30T07:51:56;15.79;93.68
66119;DHT22;52912;48.564;9.302;2023-08-30T07:54:24;15.99;94.34
66119;DHT22;52912;48.564;9.302;2023-08-30T07:56:52;16.06;93.41
66119;DHT22;52912;48.564;9.302;2023-08-30T07:59:19;16.15;92.47
66119;DHT22;52912;48.564;9.302;2023-08-30T08:01:45;16.15;92.63
66119;DHT22;52912;48.564;9.302;2023-08-30T08:04:12;16.22;92.79
66119;DHT22;52912;48.564;9.302;2023-08-30T08:06:38;16.19;92.03
66119;DHT22;52912;48.564;9.302;2023-08-30T08:09:04;16.30;91.76
66119;DHT22;52912;48.564;9.302;2023-08-30T08:11:29;16.33;92.28
66119;DHT22;52912;48.564;9.302;2023-08-30T08:13:55;16.39;91.66
66119;DHT22;52912;48.564;9.302;2023-08-30T08:16:22;16.51;91.95
66119;DHT22;52912;48.564;9.302;2023-08-30T08:18:47;16.44;90.73
66119;DHT22;52912;48.564;9.302;2023-08-30T08:21:13;16.64;90.58
66119;DHT22;52912;48.564;9.302;2023-08-30T08:23:38;16.61;90.90
66119;DHT22;52912;48.564;9.302;2023-08-30T08:26:03;16.67;90.51
66119;DHT22;52912;48.564;9.302;2023-08-30T08:28:29;16.72;91.27
66119;DHT22;52912;48.564;9.302;2023-08-30T08:30:55;16.67;90.53
66119;DHT22;52912;48.564;9.302;2023-08-30T08:33:22;16.61;90.40
66119;DHT22;52912;48.564;9.302;2023-08-30T08:35:48;16.77;90.29
66119;DHT22;52912;48.564;9.302;2023-08-30T08:38:13;16.95;91.36
66119;DHT22;52912;48.564;9.302;2023-08-30T08:40:39;17.08;91.71
66119;DHT22;52912;48.564;9.302;2023-08-30T08:43:05;17.23;90.92
66119;DHT22;52912;48.564;9.302;2023-08-30T08:45:31;17.31;88.96
66119;DHT22;52912;48.564;9.302;2023-08-30T08:47:57;17.34;89.05
66119;DHT22;52912;48.564;9.302;2023-08-30T08:50:24;17.41;89.06
66119;DHT22;52912;48.564;9.302;2023-08-30T08:52:50;17.31;87.78
66119;DHT22;52912;48.564;9.302;2023-08-30T08:55:16;17.60;88.47
66119;DHT22;52912;48.564;9.302;2023-08-30T08:57:43;17.75;87.40
66119;DHT22;52912;48.564;9.302;2023-08-30T09:00:10;17.91;87.85
66119;DHT22;52912;48.564;9.302;2023-08-30T09:02:36;17.99;87.09
66119;DHT22;52912;48.564;9.302;2023-08-30T09:05:04;18.16;87.46
66119;DHT22;52912;48.564;9.302;2023-08-30T09:07:32;18.36;87.82
66119;DHT22;52912;48.564;9.302;2023-08-30T09:09:58;18.23;85.88
66119;DHT22;52912;48.564;9.302;2023-08-30T09:12:24;18.12;86.19
66119;DHT22;52912;48.564;9.302;2023-08-30T09:14:55;18.03;85.99
66119;DHT22;52912;48.564;9.302;2023-08-30T09:17:21;18.01;87.93
66119;DHT22;52912;48.564;9.302;2023-08-30T09:19:46;18.25;87.23
66119;DHT22;52912;48.564;9.302;2023-08-30T09:22:12;18.28;87.16
66119;DHT22;52912;48.564;9.302;2023-08-30T09:24:39;18.41;85.92
66119;DHT22;52912;48.564;9.302;2023-08-30T09:27:05;18.51;85.31
66119;DHT22;52912;48.564;9.302;2023-08-30T09:29:31;18.67;85.06
66119;DHT22;52912;48.564;9.302;2023-08-30T09:31:56;18.91;85.27
66119;DHT22;52912;48.564;9.302;2023-08-30T09:34:22;18.88;84.66
66119;DHT22;52912;48.564;9.302;2023-08-30T09:36:48;18.84;83.46
66119;DHT22;52912;48.564;9.302;2023-08-30T09:39:14;18.82;83.36
66119;DHT22;52912;48.564;9.302;2023-08-30T09:41:42;19.10;82.78
66119;DHT22;52912;48.564;9.302;2023-08-30T09:44:09;18.99;83.12
66119;DHT22;52912;48.564;9.302;2023-08-30T09:46:40;18.87;82.47
66119;DHT22;52912;48.564;9.302;2023-08-30T09:49:06;18.76;83.56
66119;DHT22;52912;48.564;9.302;2023-08-30T09:51:33;19.16;83.65
66119;DHT22;52912;48.564;9.302;2023-08-30T09:54:01;19.55;82.69
66119;DHT22;52912;48.564;9.302;2023-08-30T09:56:29;19.81;81.37
66119;DHT22;52912;48.564;9.302;2023-08-30T09:58:56;19.85;81.47
66119;DHT22;52912;48.564;9.302;2023-08-30T10:01:23;19.60;81.21
66119;DHT22;52912;48.564;9.302;2023-08-30T10:03:49;19.65;81.54
66119;DHT22;52912;48.564;9.302;2023-08-30T10:06:15;19.51;81.09
66119;DHT22;52912;48.564;9.302;2023-08-30T10:08:41;19.82;79.62
66119;DHT22;52912;48.564;9.302;2023-08-30T10:11:07;20.06;78.24
66119;DHT22;52912;48.564;9.302;2023-08-30T10:13:35;19.86;79.19
66119;DHT22;52912;48.564;9.302;2023-08-30T10:16:03;19.96;79.56
66119;DHT22;52912;48.564;9.302;2023-08-30T10:18:32;19.86;79.20
66119;DHT22;52912;48.564;9.302;2023-08-30T10:20:58;19.81;78.01
66119;DHT22;52912;48.564;9.302;2023-08-30T10:23:25;20.08;77.30
66119;DHT22;52912;48.564;9.302;2023-08-30T10:25:52;20.08;78.31
66119;DHT22;52912;48.564;9.302;2023-08-30T10:28:19;20.25;78.42
66119;DHT22;52912;48.564;9.302;2023-08-30T10:30:45;20.08;78.55
66119;DHT22;52912;48.564;9.302;2023-08-30T10:33:15;20.32;78.57
66119;DHT22;52912;48.564;9.302;2023-08-30T10:35:47;20.04;78.48
66119;DHT22;52912;48.564;9.302;2023-08-30T10:38:12;20.23;78.79
66119;DHT22;52912;48.564;9.302;2023-08-30T10:40:44;20.36;79.04
66119;DHT22;52912;48.564;9.302;2023-08-30T10:43:11;20.54;77.26
66119;DHT22;52912;48.564;9.302;2023-08-30T10:45:37;20.37;78.52
66119;DHT22;52912;48.564;9.302;2023-08-30T10:48:03;20.26;78.72
66119;DHT22;52912;48.564;9.302;2023-08-30T10:50:30;20.65;77.33
66119;DHT22;52912;48.564;9.302;2023-08-30T10:52:56;20.65;77.02
66119;DHT22;52912;48.564;9.302;2023-08-30T10:55:23;20.65;78.39
66119;DHT22;52912;48.564;9.302;2023-08-30T10:57:58;20.92;79.41
66119;DHT22;52912;48.564;9.302;2023-08-30T11:00:24;21.24;76.54
66119;DHT22;52912;48.564;9.302;2023-08-30T11:02:51;20.61;77.80
66119;DHT22;52912;48.564;9.302;2023-08-30T11:05:18;20.87;78.16
66119;DHT22;52912;48.564;9.302;2023-08-30T11:07:45;20.53;78.50
66119;DHT22;52912;48.564;9.302;2023-08-30T11:10:11;21.16;78.20
66119;DHT22;52912;48.564;9.302;2023-08-30T11:12:37;20.96;76.24
66119;DHT22;52912;48.564;9.302;2023-08-30T11:15:07;21.18;76.20
66119;DHT22;52912;48.564;9.302;2023-08-30T11:17:33;21.79;75.34
66119;DHT22;52912;48.564;9.302;2023-08-30T11:20:05;21.64;75.20
66119;DHT22;52912;48.564;9.302;2023-08-30T11:22:31;22.01;74.94
66119;DHT22;52912;48.564;9.302;2023-08-30T11:24:58;22.29;73.33
66119;DHT22;52912;48.564;9.302;2023-08-30T11:27:23;22.53;70.51
66119;DHT22;52912;48.564;9.302;2023-08-30T11:29:49;22.37;72.10
66119;DHT22;52912;48.564;9.302;2023-08-30T11:32:14;22.29;71.95
66119;DHT22;52912;48.564;9.302;2023-08-30T11:34:41;22.57;71.92
66119;DHT22;52912;48.564;9.302;2023-08-30T11:37:07;22.53;72.14
66119;DHT22;52912;48.564;9.302;2023-08-30T11:39:33;22.68;72.09
66119;DHT22;52912;48.564;9.302;2023-08-30T11:42:03;22.43;70.19
66119;DHT22;52912;48.564;9.302;2023-08-30T11:44:29;22.99;67.81
66119;DHT22;52912;48.564;9.302;2023-08-30T11:46:57;22.72;69.63
66119;DHT22;52912;48.564;9.302;2023-08-30T11:49:23;23.18;69.18
66119;DHT22;52912;48.564;9.302;2023-08-30T11:51:48;23.16;69.09
66119;DHT22;52912;48.564;9.302;2023-08-30T11:54:14;22.92;67.26
66119;DHT22;52912;48.564;9.302;2023-08-30T11:56:40;23.01;66.81
66119;DHT22;52912;48.564;9.302;2023-08-30T11:59:07;23.31;66.07
66119;DHT22;52912;48.564;9.302;2023-08-30T12:01:42;23.79;66.21
66119;DHT22;52912;48.564;9.302;2023-08-30T12:04:09;23.79;64.63
66119;DHT22;52912;48.564;9.302;2023-08-30T12:06:35;22.91;65.21
66119;DHT22;52912;48.564;9.302;2023-08-30T12:09:00;23.26;66.61
66119;DHT22;52912;48.564;9.302;2023-08-30T12:11:26;22.92;65.05
66119;DHT22;52912;48.564;9.302;2023-08-30T12:13:51;22.65;65.20
66119;DHT22;52912;48.564;9.302;2023-08-30T12:16:18;22.76;65.93
66119;DHT22;52912;48.564;9.302;2023-08-30T12:18:44;22.71;65.52
66119;DHT22;52912;48.564;9.302;2023-08-30T12:21:09;23.20;66.66
66119;DHT22;52912;48.564;9.302;2023-08-30T12:23:35;23.44;65.38
66119;DHT22;52912;48.564;9.302;2023-08-30T12:26:02;23.08;64.86
66119;DHT22;52912;48.564;9.302;2023-08-30T12:28:28;23.08;64.85
66119;DHT22;52912;48.564;9.302;2023-08-30T12:30:53;23.08;66.34
66119;DHT22;52912;48.564;9.302;2023-08-30T12:33:20;23.06;67.33
66119;DHT22;52912;48.564;9.302;2023-08-30T12:35:46;22.99;66.77
66119;DHT22;52912;48.564;9.302;2023-08-30T12:38:11;22.61;67.06
66119;DHT22;52912;48.564;9.302;2023-08-30T12:40:37;22.67;68.31
66119;DHT22;52912;48.564;9.302;2023-08-30T12:43:03;22.24;69.80
66119;DHT22;52912;48.564;9.302;2023-08-30T12:45:28;22.28;67.61
66119;DHT22;52912;48.564;9.302;2023-08-30T12:47:54;22.08;68.57
66119;DHT22;52912;48.564;9.302;2023-08-30T12:50:21;21.53;70.45
66119;DHT22;52912;48.564;9.302;2023-08-30T12:52:46;21.61;69.39
66119;DHT22;52912;48.564;9.302;2023-08-30T12:55:14;21.44;68.60
66119;DHT22;52912;48.564;9.302;2023-08-30T12:57:39;21.74;69.67
66119;DHT22;52912;48.564;9.302;2023-08-30T13:00:06;21.74;69.84
66119;DHT22;52912;48.564;9.302;2023-08-30T13:02:32;21.73;70.31
66119;DHT22;52912;48.564;9.302;2023-08-30T13:04:57;21.50;70.82
66119;DHT22;52912;48.564;9.302;2023-08-30T13:07:24;21.26;70.69
66119;DHT22;52912;48.564;9.302;2023-08-30T13:09:49;20.87;70.92
66119;DHT22;52912;48.564;9.302;2023-08-30T13:12:15;20.32;70.83
66119;DHT22;52912;48.564;9.302;2023-08-30T13:14:40;21.95;68.81
66119;DHT22;52912;48.564;9.302;2023-08-30T13:17:06;22.54;66.86
66119;DHT22;52912;48.564;9.302;2023-08-30T13:19:31;23.31;66.28
66119;DHT22;52912;48.564;9.302;2023-08-30T13:21:57;23.22;65.95
66119;DHT22;52912;48.564;9.302;2023-08-30T13:24:23;23.79;65.20
66119;DHT22;52912;48.564;9.302;2023-08-30T13:26:49;24.23;63.93
66119;DHT22;52912;48.564;9.302;2023-08-30T13:29:14;24.10;62.28
66119;DHT22;52912;48.564;9.302;2023-08-30T13:31:40;23.65;63.66
66119;DHT22;52912;48.564;9.302;2023-08-30T13:34:05;23.44;64.92
66119;DHT22;52912;48.564;9.302;2023-08-30T13:36:31;23.06;64.76
66119;DHT22;52912;48.564;9.302;2023-08-30T13:38:56;23.78;64.50
66119;DHT22;52912;48.564;9.302;2023-08-30T13:41:23;23.37;64.86
66119;DHT22;52912;48.564;9.302;2023-08-30T13:43:48;22.72;66.53
66119;DHT22;52912;48.564;9.302;2023-08-30T13:46:14;23.05;66.44
66119;DHT22;52912;48.564;9.302;2023-08-30T13:48:39;23.40;64.71
66119;DHT22;52912;48.564;9.302;2023-08-30T13:51:05;22.88;66.12
66119;DHT22;52912;48.564;9.302;2023-08-30T13:53:30;23.46;65.69
66119;DHT22;52912;48.564;9.302;2023-08-30T13:55:55;23.30;66.28
66119;DHT22;52912;48.564;9.302;2023-08-30T13:58:22;23.82;65.64
66119;DHT22;52912;48.564;9.302;2023-08-30T14:00:48;24.39;65.87
66119;DHT22;52912;48.564;9.302;2023-08-30T14:03:13;24.46;63.66
66119;DHT22;52912;48.564;9.302;2023-08-30T14:05:39;24.89;63.04
66119;DHT22;52912;48.564;9.302;2023-08-30T14:08:04;25.05;63.62
66119;DHT22;52912;48.564;9.302;2023-08-30T14:10:30;25.29;62.83
66119;DHT22;52912;48.564;9.302;2023-08-30T14:12:55;24.81;63.38
66119;DHT22;52912;48.564;9.302;2023-08-30T14:15:22;24.92;64.15
66119;DHT22;52912;48.564;9.302;2023-08-30T14:17:48;25.37;62.35
66119;DHT22;52912;48.564;9.302;2023-08-30T14:20:13;25.30;63.38
66119;DHT22;52912;48.564;9.302;2023-08-30T14:22:39;24.59;63.57
66119;DHT22;52912;48.564;9.302;2023-08-30T14:25:05;24.30;64.84
66119;DHT22;52912;48.564;9.302;2023-08-30T14:27:30;23.82;65.89
66119;DHT22;52912;48.564;9.302;2023-08-30T14:29:56;23.54;65.65
66119;DHT22;52912;48.564;9.302;2023-08-30T14:32:23;23.22;66.85
66119;DHT22;52912;48.564;9.302;2023-08-30T14:34:48;23.33;66.73
66119;DHT22;52912;48.564;9.302;2023-08-30T14:37:14;23.60;66.21
66119;DHT22;52912;48.564;9.302;2023-08-30T14:39:39;23.60;63.25
66119;DHT22;52912;48.564;9.302;2023-08-30T14:42:05;23.37;63.95
66119;DHT22;52912;48.564;9.302;2023-08-30T14:44:30;23.31;66.36
66119;DHT22;52912;48.564;9.302;2023-08-30T14:46:56;23.08;66.53
66119;DHT22;52912;48.564;9.302;2023-08-30T14:49:22;22.71;66.31
66119;DHT22;52912;48.564;9.302;2023-08-30T14:51:48;22.61;68.35
66119;DHT22;52912;48.564;9.302;2023-08-30T14:54:13;22.57;68.43
66119;DHT22;52912;48.564;9.302;2023-08-30T14:56:39;22.47;68.85
66119;DHT22;52912;48.564;9.302;2023-08-30T14:59:04;22.36;65.99
66119;DHT22;52912;48.564;9.302;2023-08-30T15:01:30;22.12;69.56
66119;DHT22;52912;48.564;9.302;2023-08-30T15:03:55;22.24;70.56
66119;DHT22;52912;48.564;9.302;2023-08-30T15:06:22;22.13;68.56
66119;DHT22;52912;48.564;9.302;2023-08-30T15:08:48;22.19;67.69
66119;DHT22;52912;48.564;9.302;2023-08-30T15:11:13;22.09;68.89
66119;DHT22;52912;48.564;9.302;2023-08-30T15:13:39;21.98;68.69
66119;DHT22;52912;48.564;9.302;2023-08-30T15:16:04;21.75;68.56
66119;DHT22;52912;48.564;9.302;2023-08-30T15:18:30;21.51;69.70
66119;DHT22;52912;48.564;9.302;2023-08-30T15:20:55;21.51;71.57
66119;DHT22;52912;48.564;9.302;2023-08-30T15:23:22;21.33;73.10